Details From EGLC - London City
To EGGW - London Luton
Flight Number -
Tags generated
Created
Modified
Stats Distance 28 nm / 51 km
Max Altitude 2,800 ft / 853 m
Waypoints 3
Social Downloads 2
Likes 0
Share VATSIM

Download

Looking for another format? Having issues loading an existing format? Contact us
Advertisement - Login to hide

Notes

Basic altitude profile: - Ascent Rate: 2500ft/min - Ascent Speed: 250kts - Cruise Altitude: 3000ft - Cruise Speed: 420kts - Descent Rate: 1500ft/min - Descent Speed: 250kts Options: - Use NATs: yes - Use PACOTS: yes - Use low airways: yes - Use high airways: yes

Route

EGLC IPRIL EGGW

ID Type Via Altitude (ft/m) Position (lat/lon) Dist (leg/tot) Name
O EGLC APT - 0 / 0 51.50523 / 0.05518 - / 0 nm London City
IPRIL FIX - 2,800 / 853 51.67472 / -0.22639 14 / 14 nm
O EGGW APT - 0 / 0 51.87463 / -0.36845 13 / 27 nm London Luton

Altitude Profile

Advertisement - Login to hide

EGLC

Details ICAO EGLC (LCY)
Name London City
Region United Kingdom
Timezone Europe/London (UTC+0.0)
Stats Elevation 19 ft / 6 m (AMSL)
Location 51.505200° 0.055183°
Runways 1
Magnetic Variation 0.238° W

METAR

EGLC 131750Z AUTO 07008KT 9999 SCT030 05/M00 Q1019

Decode

TAF

Not found

Departure Runways

ID Width Length Bearing (true/mag) Surface Threshold Overrun Markings Lighting
09 98 ft / 30 m 4,914 ft / 1,498 m 92.88° / 93.12° ASPHALT 308 ft / 94 m 190 ft / 58 m UK-PREC-APP CENTERLINE EDGE THRESHOLD MALS REIL-OMNI
27 98 ft / 30 m 4,914 ft / 1,498 m 272.90° / 273.13° ASPHALT 233 ft / 71 m 302 ft / 92 m UK-PREC-APP CENTERLINE EDGE THRESHOLD MALS REIL-OMNI

EGGW

Details ICAO EGGW (LTN)
Name London Luton
Region United Kingdom
Timezone Europe/London (UTC+0.0)
Stats Elevation 525 ft / 160 m (AMSL)
Location 51.874600° -0.368440°
Runways 1
Magnetic Variation 0.425° W

METAR

EGGW 131750Z AUTO 08009KT 9999 FEW026 01/M01 Q1018

Decode

TAF

TAF EGGW 131654Z 1318/1418 08008KT 9999 FEW030 PROB40 1403/1412 6000 PROB30 TEMPO 1412/1418 BKN014

Decode

Destination Runways

ID Width Length Bearing (true/mag) Surface Threshold Overrun Markings Lighting
08 150 ft / 46 m 7,067 ft / 2,154 m 74.34° / 74.76° ASPHALT 0 ft / 0 m 197 ft / 60 m UK-PREC-APP CENTERLINE EDGE THRESHOLD ALSF-I REIL-OMNI
26 150 ft / 46 m 7,067 ft / 2,154 m 254.36° / 254.78° ASPHALT 279 ft / 85 m 0 ft / 0 m UK-PREC-APP CENTERLINE EDGE THRESHOLD CALVERT REIL-OMNI

Approach Navaids

Runway Type Ident Frequency Range Bearing (true/mag) Slope Elevation
08 LOC-ILS ILTN 109.15 MHz 25 nm / 46 km 74.35° / 74.77 ° - 525 ft / 160 m (AMSL)
08 GS ILTN 109.15 MHz 10 nm / 19 km 74.73° / 75.15 ° 3.00° 526 ft / 160 m (AMSL)
08 DME ILTN 109.15 MHz 18 nm / 33 km - - 549 ft / 167 m (AMSL)
26 DME ILJ 109.15 MHz 18 nm / 33 km - - 549 ft / 167 m (AMSL)
26 GS ILJ 109.15 MHz 10 nm / 19 km 254.73° / 255.15 ° 3.00° 526 ft / 160 m (AMSL)
26 LOC-ILS ILJ 109.15 MHz 25 nm / 46 km 254.35° / 254.77 ° - 525 ft / 160 m (AMSL)

Popular Alternatives